GUU weather

Grundarfjörður Airport
Grundarfjörður, Western Region, Iceland

Public forecast

Using degrees Celsius for public forecast. Weather courtesy of forecast.io.

METAR (pilot weather report)

Closest report is Bildudalur Airport, 39.8 nm (73.8 km) NNW. Retrieved 2019/04/24 09:00 UTC (25 minutes ago):

BIBD 240900Z 13007KT 9999 BKN035 07/03 Q0997

TAF (pilot weather forecast)

Closest forecast is Reykjavik Airport, 61.4 nm (113.7 km) SSE. Retrieved 2019/04/24 09:58 UTC (0 seconds ago):

TAF BIRK 240751Z 2409/2509 12013KT 9999 FEW025 SCT030 BKN050 TX10/2420Z TN06/2506Z BECMG 2409/2412 VRB02KT RA BKN015 OVC025 TEMPO 2411/2421 5000 RADZ BKN010 OVC018 BECMG 2419/2422 11015KT -DZ BECMG 2423/2502 12020G30KT PROB40 TEMPO 2421/2506 4000 DZ BKN008 OVC016 BECMG 2506/2509 12016KT